• Join FlightAware (Why Join?)
  • Login
  • US Flag GB Flag 
05:23 EDT


 

Airport Tracker/Info


-or-


 

Live Flight TrackerFlight Track Log ✈ DAL110 ✈ 24-Apr-2013 ✈ KATL - KLAX

Flight Track Log - Related Links

Times and Time Zones

All times are in EDT time to prevent confusion due to time zone crossing. See the DAL110 flight status page for this flight to view local times or setup timezone preferences in your user account.

Time Position Orientation Groundspeed Altitude Reporting Facility
EDT Latitude Longitude Course Direction KTS MPH feet Rate Location/Type
08:41 33.6470 -84.4440 274° West 173 199 1,500  Level FlightAware
08:41 33.6510 -84.4750 279° West 186 214 2,800 2,160 Climbing FlightAware
08:42 33.6560 -84.5100 280° West 230 265 3,700 2,040 Climbing FlightAware
08:42 33.6620 -84.5410 283° West 250 288 4,700 2,580 Climbing FlightAware
08:43 33.6690 -84.5760 284° West 256 295 6,100 2,940 Climbing FlightAware
08:43 33.6750 -84.6100 282° West 257 296 7,400 3,000 Climbing FlightAware
08:44 33.6860 -84.6790 281° West 276 318 9,600 2,220 Climbing FlightAware
08:45 33.7070 -84.8060 281° West 350 403 11,700 2,280 Climbing FlightAware
08:46 33.7170 -84.8800 279° West 356 410 13,800 2,940 Climbing FlightAware
08:46 33.7300 -84.9670 280° West 373 429 15,900 3,000 Climbing FlightAware
08:47 33.7420 -85.0550 279° West 380 437 18,100 3,120 Climbing FlightAware
08:48 33.7540 -85.1340 280° West 384 442 20,100 3,120 Climbing FlightAware
08:48 33.7680 -85.2330 280° West 389 448 22,600 2,160 Climbing FlightAware
08:49 33.7870 -85.3440 282° West 390 449 23,700 2,700 Climbing FlightAware
08:50 33.8030 -85.4350 282° West 413 475 26,700 3,720 Climbing FlightAware
08:51 33.8180 -85.5280 281° West 419 482 28,400 2,400 Climbing FlightAware
08:51 33.8380 -85.6370 282° West 421 484 30,300 2,220 Climbing FlightAware
08:52 33.8600 -85.7170 288° West 437 503 31,600 2,460 Climbing FlightAware
08:53 33.9028 -85.8508 291° West 422 486 34,000 2,880 Climbing FlightAware ADS-B
08:53 33.9241 -85.9172 291° West 408 470 35,700 2,880 Climbing FlightAware ADS-B
08:54 33.9443 -85.9807 291° West 402 463 37,000 1,980 Climbing FlightAware ADS-B
08:54 33.9645 -86.0457 291° West 399 459 37,800 900 Climbing FlightAware ADS-B
08:55 33.9849 -86.1113 291° West 397 457 38,000 120 Climbing FlightAware ADS-B
08:56 34.0158 -86.2219 289° West 392 451 38,000  Level FlightAware ADS-B
08:56 34.0332 -86.2843 289° West 392 451 38,000  Level FlightAware ADS-B
08:57 34.0532 -86.3543 289° West 389 448 38,000  Level FlightAware ADS-B
08:57 34.0710 -86.4160 289° West 389 448 38,000  Level FlightAware
08:58 34.0811 -86.4523 289° West 389 448 38,000  Level FlightAware ADS-B
08:58 34.1076 -86.5465 289° West 387 445 38,000  Level FlightAware ADS-B
08:59 34.1217 -86.6048 286° West 386 444 38,000  Level FlightAware ADS-B
09:00 34.0750 -86.4290 108° East 387 445 38,000  Level FlightAware
09:00 34.0830 -86.5000 278° West 387 445 38,000  Level FlightAware
09:01 34.1480 -86.8430 283° West 389 448 38,000  Level FlightAware
09:02 34.1590 -86.9420 278° West 390 449 38,000  Level FlightAware
09:02 34.1670 -87.0080 278° West 390 449 38,000  Level FlightAware
09:03 34.1770 -87.0810 279° West 390 449 38,000  Level FlightAware
09:04 34.1890 -87.1730 279° West 390 449 38,000  Level FlightAware
09:04 34.1990 -87.2460 279° West 390 449 38,000  Level FlightAware
09:05 34.2080 -87.3190 278° West 390 449 38,000  Level FlightAware
09:06 34.2180 -87.3920 279° West 390 449 38,000  Level FlightAware
09:06 34.2270 -87.4660 278° West 390 449 38,000  Level FlightAware
09:07 34.2370 -87.5390 279° West 390 449 38,000  Level FlightAware
09:08 34.2490 -87.6310 279° West 390 449 38,000  Level FlightAware
09:09 34.2580 -87.7040 279° West 390 449 38,000  Level FlightAware
09:09 34.2680 -87.7770 279° West 390 449 38,000  Level FlightAware
09:10 34.2780 -87.8510 279° West 390 449 38,000  Level FlightAware
09:11 34.2900 -87.9420 279° West 390 449 38,000  Level FlightAware
09:11 34.2990 -88.0160 278° West 390 449 38,000  Level FlightAware
09:12 34.4836 -88.2003 278° West 395 455 38,000  Level Memphis Center
09:13 34.5211 -88.3228 290° West 400 460 38,000  Level Memphis Center
09:14 34.5586 -88.4431 291° West 395 455 38,000  Level Memphis Center
09:15 34.5939 -88.5658 289° West 395 455 38,000  Level Memphis Center
09:16 34.6353 -88.6961 291° West 382 440 38,000  Level Memphis Center
09:17 34.6722 -88.8192 290° West 382 440 38,000  Level Memphis Center
09:18 34.7092 -88.9422 290° West 387 445 38,000  Level Memphis Center
09:19 34.7461 -89.0681 290° West 387 445 38,000  Level Memphis Center
09:20 34.7850 -89.1964 290° West 387 445 38,000  Level Memphis Center
09:21 34.8214 -89.3200 290° West 387 445 38,000  Level Memphis Center
09:22 34.8578 -89.4433 290° West 387 445 38,000  Level Memphis Center
09:23 34.8942 -89.5519 292° West 387 445 38,000  Level Memphis Center
09:24 34.9261 -89.6858 286° West 399 459 38,000  Level Memphis Center
09:25 34.9750 -89.8300 293° West 414 476 38,000  Level Memphis Center
09:26 35.0108 -89.9589 289° West 420 483 38,000  Level Memphis Center
09:27 35.0258 -90.0908 278° West 403 464 38,000  Level Memphis Center
09:28 35.0344 -90.2200 275° West 391 450 38,000  Level Memphis Center
09:29 35.0428 -90.3394 275° West 386 444 38,000  Level Memphis Center
09:30 35.0533 -90.4686 276° West 386 444 38,000  Level Memphis Center
09:31 35.0633 -90.6006 275° West 386 444 38,000  Level Memphis Center
09:32 35.0714 -90.7325 274° West 386 444 38,000  Level Memphis Center
09:33 35.0814 -90.8619 275° West 386 444 38,000  Level Memphis Center
09:34 35.0914 -90.9942 275° West 386 444 38,000  Level Memphis Center
09:35 35.1011 -91.1211 275° West 386 444 38,000  Level Memphis Center
09:36 35.1083 -91.2633 274° West 386 444 38,000  Level Memphis Center
09:37 35.1200 -91.3928 276° West 386 444 38,000  Level Memphis Center
09:38 35.1231 -91.5197 272° West 379 436 38,000  Level Memphis Center
09:39 35.1322 -91.6469 275° West 384 442 38,000  Level Memphis Center
09:40 35.1392 -91.7764 274° West 384 442 38,000  Level Memphis Center
09:41 35.1481 -91.9061 275° West 384 442 38,000  Level Memphis Center
09:42 35.1525 -92.0358 272° West 384 442 38,000  Level Memphis Center
09:43 35.1633 -92.1656 276° West 384 442 38,000  Level Memphis Center
09:44 35.1697 -92.2928 274° West 384 442 38,000  Level Memphis Center
09:45 35.1761 -92.4225 273° West 384 442 38,000  Level Memphis Center
09:46 35.1842 -92.5472 275° West 384 442 38,000  Level Memphis Center
09:47 35.1903 -92.6769 273° West 384 442 38,000  Level Memphis Center
09:48 35.2003 -92.8117 275° West 393 452 38,000  Level Memphis Center
09:49 35.2081 -92.9392 274° West 388 447 38,000  Level Memphis Center
09:50 35.2117 -93.0636 272° West 383 441 38,000  Level Memphis Center
09:51 35.2214 -93.1961 275° West 383 441 38,000  Level Memphis Center
09:52 35.2267 -93.3208 273° West 390 449 38,000  Level Memphis Center
09:53 35.2303 -93.4353 272° West 385 443 38,000  Level Memphis Center
09:54 35.2353 -93.5653 273° West 385 443 38,000  Level Memphis Center
09:55 35.2422 -93.6953 274° West 385 443 38,000  Level Memphis Center
09:56 35.2472 -93.8250 273° West 385 443 38,000  Level Memphis Center
09:57 35.2539 -93.9525 274° West 385 443 38,000  Level Memphis Center
10:02 35.2840 -94.6890 274° West 385 443 38,000  Level FlightAware
10:03 35.2870 -94.7800 272° West 385 443 38,000  Level FlightAware
10:04 35.2890 -94.8730 272° West 385 443 38,000  Level FlightAware
10:05 35.2920 -94.9470 273° West 385 443 38,000  Level FlightAware
10:05 35.2940 -95.0210 272° West 385 443 38,000  Level FlightAware
10:06 35.2960 -95.0950 272° West 385 443 38,000  Level FlightAware
10:07 35.2980 -95.1690 272° West 385 443 38,000  Level FlightAware
10:07 35.3000 -95.2440 272° West 385 443 38,000  Level FlightAware
10:08 35.3030 -95.3360 272° West 385 443 38,000  Level FlightAware
10:09 35.3050 -95.4100 272° West 385 443 38,000  Level FlightAware
10:10 35.3070 -95.4850 272° West 385 443 38,000  Level FlightAware
10:10 35.3090 -95.5590 272° West 385 443 38,000  Level FlightAware
10:11 35.3110 -95.6510 272° West 385 443 38,000  Level FlightAware
10:12 35.3140 -95.7260 273° West 385 443 38,000  Level FlightAware
10:13 35.3260 -96.0010 273° West 376 433 38,000  Level FlightAware
10:13 35.3290 -96.0900 272° West 375 432 38,000  Level FlightAware
10:14 35.3310 -96.1750 272° West 373 429 38,000  Level FlightAware
10:15 35.3330 -96.2680 272° West 375 432 38,000  Level FlightAware
10:15 35.3360 -96.3660 272° West 374 430 38,000  Level FlightAware
10:16 35.3380 -96.4500 272° West 373 429 38,000  Level FlightAware
10:17 35.3400 -96.5440 272° West 374 430 38,000  Level FlightAware
10:18 35.3410 -96.6240 271° West 375 432 38,000  Level FlightAware
10:18 35.3430 -96.7240 271° West 374 430 38,000  Level FlightAware
10:19 35.3450 -96.7920 272° West 373 429 38,000  Level FlightAware
10:20 35.3470 -96.8910 271° West 373 429 38,000  Level FlightAware
10:20 35.3480 -96.9780 271° West 373 429 38,000  Level FlightAware
10:21 35.3490 -97.0500 271° West 373 429 38,000  Level FlightAware
10:22 35.3500 -97.1220 271° West 373 429 38,000  Level FlightAware
10:22 35.3510 -97.1940 271° West 373 429 38,000  Level FlightAware
10:23 35.3520 -97.2660 271° West 373 429 38,000  Level FlightAware
10:24 35.3540 -97.3560 272° West 373 429 38,000  Level FlightAware
10:24 35.3540 -97.4100 270° West 373 429 38,000  Level FlightAware
10:25 35.3580 -97.6000 272° West 365 420 38,000  Level FlightAware
10:26 35.3590 -97.6980 271° West 365 420 38,000  Level FlightAware
10:27 35.3590 -97.7870 270° West 365 420 38,000  Level FlightAware
10:28 35.3590 -97.8820 270° West 366 421 38,000  Level FlightAware
10:28 35.3590 -97.9530 270° West 366 421 38,000  Level FlightAware
10:29 35.3590 -98.0240 270° West 366 421 38,000  Level FlightAware
10:30 35.3590 -98.0940 270° West 366 421 38,000  Level FlightAware
10:30 35.3590 -98.1650 270° West 366 421 38,000  Level FlightAware
10:31 35.3590 -98.2530 270° West 366 421 38,000  Level FlightAware
10:32 35.3590 -98.3060 270° West 366 421 38,000  Level FlightAware
10:32 35.3590 -98.3940 270° West 366 421 38,000  Level FlightAware
10:33 35.3590 -98.4650 270° West 366 421 38,000  Level FlightAware
10:34 35.3590 -98.5350 270° West 366 421 38,000  Level FlightAware
10:35 35.3590 -98.6240 270° West 366 421 38,000  Level FlightAware
10:35 35.3590 -98.6940 270° West 366 421 38,000  Level FlightAware
10:36 35.3590 -98.7650 270° West 366 421 38,000  Level FlightAware
10:37 35.3590 -98.8350 270° West 366 421 38,000  Level FlightAware
10:37 35.3514 -99.0653 270° West 369 425 38,000  Level Fort Worth Center
10:38 35.3497 -99.1928 269° West 369 425 38,000  Level Fort Worth Center
10:39 35.3500 -99.3200 270° West 369 425 38,000  Level Fort Worth Center
10:41 35.3469 -99.5508 269° West 376 433 38,000  Level Albuquerque Center
10:42 35.3456 -99.6828 269° West 381 438 38,000  Level Albuquerque Center
10:43 35.3422 -99.8125 268° West 382 440 38,000  Level Albuquerque Center
10:44 35.3383 -99.9383 268° West 375 432 38,000  Level Albuquerque Center
10:45 35.3350 -100.0644 268° West 369 425 38,000  Level Albuquerque Center
10:46 35.3314 -100.2158 268° West 369 425 38,000  Level Albuquerque Center
10:47 35.3281 -100.3417 268° West 368 423 38,000  Level Albuquerque Center
10:48 35.3231 -100.4672 267° West 367 422 38,000  Level Albuquerque Center
10:49 35.3192 -100.5936 268° West 369 425 38,000  Level Albuquerque Center
10:50 35.3156 -100.7128 268° West 369 425 38,000  Level Albuquerque Center
10:51 35.3111 -100.8383 268° West 370 426 38,000  Level Albuquerque Center
10:52 35.3056 -100.9892 267° West 371 427 38,000  Level Albuquerque Center
10:53 35.3017 -101.1142 268° West 369 425 38,000  Level Albuquerque Center
10:54 35.2961 -101.2403 267° West 371 427 38,000  Level Albuquerque Center
10:55 35.2919 -101.3783 268° West 375 432 38,000  Level Albuquerque Center
10:56 35.2869 -101.5056 267° West 374 430 38,000  Level Albuquerque Center
10:57 35.2853 -101.6344 269° West 377 434 38,000  Level Albuquerque Center
10:58 35.2750 -101.7606 264° West 377 434 38,000  Level Albuquerque Center
10:59 35.2708 -101.8900 268° West 377 434 38,000  Level Albuquerque Center
11:01 35.2628 -102.0194 266° West 379 436 38,000  Level Albuquerque Center
11:02 35.2550 -102.1728 266° West 378 435 38,000  Level Albuquerque Center
11:03 35.2486 -102.3008 267° West 378 435 38,000  Level Albuquerque Center
11:04 35.2428 -102.4297 267° West 380 437 38,000  Level Albuquerque Center
11:05 35.2361 -102.5578 266° West 379 436 38,000  Level Albuquerque Center
11:06 35.2297 -102.6872 267° West 382 440 38,000  Level Albuquerque Center
11:07 35.2242 -102.8158 267° West 381 438 38,000  Level Albuquerque Center
11:08 35.2169 -102.9711 267° West 382 440 38,000  Level Albuquerque Center
11:09 35.2092 -103.1047 266° West 383 441 38,000  Level Albuquerque Center
11:10 35.2036 -103.2358 267° West 384 442 38,000  Level Albuquerque Center
11:11 35.1961 -103.3661 266° West 383 441 38,000  Level Albuquerque Center
11:12 35.1886 -103.4969 266° West 382 440 38,000  Level Albuquerque Center
11:13 35.1814 -103.6269 266° West 381 438 38,000  Level Albuquerque Center
11:14 35.1756 -103.7572 267° West 381 438 38,000  Level Albuquerque Center
11:15 35.1697 -103.8875 267° West 380 437 38,000  Level Albuquerque Center
11:16 35.1614 -104.0308 266° West 385 443 38,000  Level Albuquerque Center
11:17 35.1525 -104.1622 265° West 387 445 38,000  Level Albuquerque Center
11:18 35.1472 -104.2944 267° West 389 448 38,000  Level Albuquerque Center
11:19 35.1417 -104.4247 267° West 387 445 38,000  Level Albuquerque Center
11:20 35.1356 -104.5808 267° West 384 442 38,000  Level Albuquerque Center
11:21 35.1289 -104.7119 266° West 385 443 38,000  Level Albuquerque Center
11:22 35.1219 -104.8425 266° West 383 441 38,000  Level Albuquerque Center
11:23 35.1153 -104.9750 267° West 386 444 38,000  Level Albuquerque Center
11:24 35.1092 -105.1078 267° West 387 445 38,000  Level Albuquerque Center
11:29 35.0860 -105.7860 267° West 384 442 38,000  Level FlightAware
11:30 35.0830 -105.8710 268° West 384 442 38,000  Level FlightAware
11:31 35.0790 -105.9680 267° West 385 443 38,000  Level FlightAware
11:32 35.0760 -106.0670 268° West 385 443 38,000  Level FlightAware
11:32 35.0730 -106.1320 267° West 385 443 38,000  Level FlightAware
11:33 35.0680 -106.2500 267° West 384 442 38,000  Level FlightAware
11:34 35.0650 -106.3390 268° West 383 441 38,000  Level FlightAware
11:34 35.0610 -106.4260 267° West 382 440 38,000  Level FlightAware
11:35 35.0570 -106.5210 267° West 382 440 38,000  Level FlightAware
11:36 35.0530 -106.6060 267° West 381 438 38,000  Level FlightAware
11:36 35.0490 -106.7040 267° West 380 437 38,000  Level FlightAware
11:37 35.0450 -106.7910 267° West 380 437 38,000  Level FlightAware
11:38 35.0420 -106.8610 267° West 381 438 38,000  Level FlightAware
11:38 35.0400 -106.9610 269° West 381 438 38,000  Level FlightAware
11:39 35.0380 -107.0470 268° West 381 438 38,000  Level FlightAware
11:40 35.0360 -107.1430 269° West 382 440 38,000  Level FlightAware
11:41 35.0330 -107.2340 268° West 383 441 38,000  Level FlightAware
11:41 35.0310 -107.3250 268° West 384 442 38,000  Level FlightAware
11:42 35.0280 -107.4220 268° West 385 443 38,000  Level FlightAware
11:43 35.0250 -107.5090 268° West 384 442 38,000  Level FlightAware
11:43 35.0220 -107.6080 268° West 383 441 38,000  Level FlightAware
11:44 35.0200 -107.6920 268° West 383 441 38,000  Level FlightAware
11:45 35.0170 -107.7780 268° West 382 440 38,000  Level FlightAware
11:46 35.0140 -107.8770 268° West 382 440 38,000  Level FlightAware
11:46 35.0110 -107.9590 267° West 383 441 38,000  Level FlightAware
11:47 35.0080 -108.0570 268° West 385 443 38,000  Level FlightAware
11:48 35.0050 -108.1310 267° West 387 445 38,000  Level FlightAware
11:48 35.0020 -108.2330 268° West 387 445 38,000  Level FlightAware
11:49 34.9980 -108.3320 267° West 385 443 38,000  Level FlightAware
11:50 34.9950 -108.4180 268° West 386 444 38,000  Level FlightAware
11:50 34.9920 -108.5130 268° West 385 443 38,000  Level FlightAware
11:51 34.9880 -108.6010 267° West 386 444 38,000  Level FlightAware
11:52 34.9850 -108.6690 267° West 386 444 38,000  Level FlightAware
11:53 34.9810 -108.7840 268° West 387 445 38,000  Level FlightAware
11:53 34.9780 -108.8710 268° West 387 445 38,000  Level FlightAware
11:54 34.9740 -108.9690 267° West 386 444 38,000  Level FlightAware
11:55 34.9700 -109.0410 266° West 387 445 38,000  Level FlightAware
11:55 34.9670 -109.1150 267° West 387 445 38,000  Level FlightAware
11:56 34.9630 -109.2080 267° West 387 445 38,000  Level FlightAware
11:57 34.9600 -109.2820 267° West 387 445 38,000  Level FlightAware
11:57 34.9570 -109.3570 267° West 387 445 38,000  Level FlightAware
11:58 34.9540 -109.4310 267° West 387 445 38,000  Level FlightAware
11:59 34.9510 -109.5050 267° West 387 445 38,000  Level FlightAware
11:59 34.9470 -109.5790 266° West 387 445 38,000  Level FlightAware
12:00 34.9430 -109.6720 267° West 387 445 38,000  Level FlightAware
12:01 34.9400 -109.7460 267° West 387 445 38,000  Level FlightAware
12:02 34.9370 -109.8200 267° West 387 445 38,000  Level FlightAware
12:02 34.9340 -109.8940 267° West 387 445 38,000  Level FlightAware
12:03 34.9300 -109.9870 267° West 387 445 38,000  Level FlightAware
12:04 34.8910 -110.2270 259° West 391 450 38,000  Level FlightAware
12:04 34.8840 -110.3210 265° West 391 450 38,000  Level FlightAware
12:05 34.8780 -110.3990 265° West 391 450 38,000  Level FlightAware
12:06 34.8710 -110.4960 265° West 392 451 38,000  Level FlightAware
12:07 34.8630 -110.5940 264° West 392 451 38,000  Level FlightAware
12:07 34.8560 -110.6860 265° West 391 450 38,000  Level FlightAware
12:08 34.8440 -110.8020 263° West 391 450 38,000  Level FlightAware
12:09 34.8310 -110.9010 261° West 388 447 38,000  Level FlightAware
12:09 34.8200 -110.9820 261° West 390 449 38,000  Level FlightAware
12:10 34.8100 -111.0660 262° West 389 448 38,000  Level FlightAware
12:11 34.7980 -111.1600 261° West 396 456 38,000  Level FlightAware
12:12 34.7850 -111.2640 261° West 398 458 38,000  Level FlightAware
12:12 34.7710 -111.3710 261° West 394 453 38,000  Level FlightAware
12:13 34.7550 -111.4970 261° West 395 455 38,000  Level FlightAware
12:14 34.7420 -111.5910 260° West 395 455 38,000  Level FlightAware
12:15 34.7290 -111.6910 261° West 394 453 38,000  Level FlightAware
12:15 34.7180 -111.7760 261° West 393 452 38,000  Level FlightAware
12:16 34.7090 -111.8410 260° West 393 452 38,000  Level FlightAware
12:17 34.7030 -111.9300 265° West 395 455 38,000  Level FlightAware
12:17 34.6990 -111.9820 265° West 395 455 38,000  Level FlightAware
12:18 34.6910 -112.0940 265° West 396 456 38,000  Level FlightAware
12:19 34.6820 -112.2050 264° West 397 457 38,000  Level FlightAware
12:19 34.6730 -112.3080 264° West 396 456 38,000  Level FlightAware
12:20 34.6660 -112.3950 264° West 398 458 38,000  Level FlightAware
12:21 34.6580 -112.4850 264° West 400 460 38,000  Level FlightAware
12:21 34.6510 -112.5830 265° West 400 460 38,000  Level FlightAware
12:22 34.6440 -112.6680 264° West 402 463 38,000  Level FlightAware
12:23 34.6350 -112.7760 264° West 404 465 38,000  Level FlightAware
12:24 34.6280 -112.8650 265° West 405 466 38,000  Level FlightAware
12:24 34.6210 -112.9540 265° West 405 466 38,000  Level FlightAware
12:25 34.6130 -113.0440 264° West 406 467 38,000  Level FlightAware
12:26 34.6040 -113.1500 264° West 407 468 38,000  Level FlightAware
12:26 34.5960 -113.2530 265° West 407 468 38,000  Level FlightAware
12:27 34.5880 -113.3400 264° West 408 470 38,000  Level FlightAware
12:28 34.5790 -113.4440 264° West 408 470 38,000  Level FlightAware
12:28 34.5720 -113.5290 264° West 408 470 38,000  Level FlightAware
12:29 34.5610 -113.6380 263° West 408 470 38,000  Level FlightAware
12:30 34.5480 -113.7120 258° West 408 470 38,000  Level FlightAware
12:31 34.5240 -113.8300 256° West 408 470 38,000  Level FlightAware
12:32 34.5000 -113.9480 256° West 409 471 38,000  Level FlightAware
12:32 34.4810 -114.0390 256° West 411 473 38,000  Level FlightAware
12:33 34.4630 -114.1280 256° West 413 475 38,000  Level FlightAware
12:34 34.4430 -114.2260 256° West 414 476 38,000  Level FlightAware
12:34 34.4240 -114.3170 256° West 414 476 38,000  Level FlightAware
12:35 34.4030 -114.4170 256° West 415 478 38,000  Level FlightAware
12:36 34.3850 -114.5000 255° West 415 478 38,000  Level FlightAware
12:36 34.3650 -114.5990 256° West 415 478 38,000  Level FlightAware
12:37 34.3450 -114.6900 255° West 415 478 38,000  Level FlightAware
12:38 34.3240 -114.7900 256° West 416 479 38,000  Level FlightAware
12:38 34.3060 -114.8790 256° West 417 480 38,000  Level FlightAware
12:39 34.2770 -115.0150 256° West 417 480 38,000  Level FlightAware
12:40 34.2580 -115.0970 254° West 417 480 38,000  Level FlightAware
12:41 34.2350 -115.2090 256° West 418 481 38,000  Level FlightAware
12:42 34.2160 -115.2970 255° West 419 482 38,000 -240 Level FlightAware
12:42 34.1970 -115.3890 256° West 421 484 37,700 -780 Descending FlightAware
12:43 34.1810 -115.4880 259° West 425 489 36,900 -960 Descending FlightAware
12:44 34.1680 -115.5840 261° West 425 489 36,400 -1,140 Descending FlightAware
12:44 34.1540 -115.6900 261° West 436 502 35,300 -1,320 Descending FlightAware
12:45 34.1410 -115.7890 261° West 441 507 34,600 -1,020 Descending FlightAware
12:46 34.1290 -115.8840 261° West 444 511 34,000 -1,020 Descending FlightAware
12:46 34.1130 -115.9970 260° West 447 514 33,200 -1,740 Descending FlightAware
12:47 34.0990 -116.0970 260° West 454 522 31,600 -1,920 Descending FlightAware
12:48 34.0840 -116.2050 261° West 444 511 30,500 -1,680 Descending FlightAware
12:49 34.0710 -116.3020 261° West 439 505 29,300 -1,740 Descending FlightAware
12:49 34.0570 -116.3950 260° West 432 497 28,200 -1,980 Descending FlightAware
12:50 34.0420 -116.5030 261° West 416 479 26,500 -2,340 Descending FlightAware
12:51 34.0290 -116.5940 260° West 402 463 24,900 -2,280 Descending FlightAware
12:51 34.0170 -116.6810 261° West 385 443 23,500 -2,100 Descending FlightAware
12:52 34.0040 -116.7710 260° West 365 420 22,000 -2,100 Descending FlightAware
12:53 33.9920 -116.8510 260° West 378 435 20,600 -2,160 Descending FlightAware
12:53 33.9780 -116.9480 260° West 369 425 19,000 -2,280 Descending FlightAware
12:54 33.9670 -117.0280 261° West 372 428 17,400 -1,500 Descending FlightAware
12:55 33.9560 -117.1060 260° West 375 432 17,000 -900 Descending FlightAware
12:56 33.9470 -117.2020 264° West 372 428 16,200 -1,440 Descending FlightAware
12:56 33.9400 -117.2840 264° West 365 420 15,000 -1,740 Descending FlightAware
12:57 33.9340 -117.3580 264° West 367 422 13,900 -1,920 Descending FlightAware
12:58 33.9590 -117.4540 287° West 375 432 12,300 -1,740 Descending FlightAware
12:58 33.9910 -117.5380 295° West 359 413 11,300 -1,140 Descending FlightAware
12:59 34.0110 -117.6070 289° West 308 354 10,700 -900 Descending FlightAware
13:00 34.0080 -117.6730 267° West 291 335 10,100 -960 Descending FlightAware
13:00 34.0040 -117.7190 264° West 271 312 9,600 -1,200 Descending FlightAware
13:01 34.0000 -117.7570 263° West 260 299 9,000 -1,200 Descending FlightAware
13:01 33.9980 -117.7770 263° West 258 297 8,800 -1,200 Descending FlightAware
13:01 33.9930 -117.8200 262° West 257 296 8,100 -1,200 Descending FlightAware
13:02 33.9900 -117.8570 264° West 255 293 7,700 -1,080 Descending FlightAware
13:02 33.9880 -117.8770 263° West 256 295 7,400 -1,080 Descending FlightAware
13:03 33.9840 -117.9190 263° West 254 292 6,900 -1,020 Descending FlightAware
13:03 33.9800 -117.9560 263° West 252 290 6,500 -1,020 Descending FlightAware
13:03 33.9760 -117.9970 263° West 247 284 6,000 -1,020 Descending FlightAware
13:04 33.9720 -118.0380 263° West 243 280 5,500 -1,080 Descending FlightAware
13:04 33.9710 -118.0500 264° West 243 280 5,300 -1,080 Descending FlightAware
13:05 33.9670 -118.0910 263° West 244 281 4,800 -1,080 Descending FlightAware
13:05 33.9650 -118.1100 263° West 244 281 4,500 -1,380 Descending FlightAware
13:05 33.9610 -118.1460 262° West 240 276 3,900 -1,320 Descending FlightAware
13:06 33.9580 -118.1830 264° West 213 245 3,300 -1,140 Descending FlightAware
13:06 33.9540 -118.2160 262° West 206 237 2,800 -1,140 Descending FlightAware
13:07 33.9510 -118.2440 263° West 204 235 2,300 -840 Descending FlightAware
13:07 33.9490 -118.2700 265° West 187 215 1,900 -780 Descending FlightAware
13:08 33.9460 -118.3000 263° West 163 188 1,400 -780 Descending FlightAware
13:08 33.9440 -118.3180 262° West 149 171 1,200 -240 Descending FlightAware
13:09 33.9420 -118.3380 263° West 149 171 1,200 -900 Level FlightAware
13:09 33.9390 -118.3710 264° West 146 168 300 -840 Descending FlightAware
13:10 33.9360 -118.4000 263° West 144 166 200 -180 Descending FlightAware